sensor_id;sensor_type;location;lat;lon;timestamp;pressure;altitude;pressure_sealevel;temperature;humidity
73748;BME280;62056;52.130;5.428;2022-08-01T12:47:35;102164.97;;;22.10;46.37
73748;BME280;62056;52.130;5.428;2022-08-01T12:51:40;102162.53;;;22.17;45.98
73748;BME280;62056;52.130;5.428;2022-08-01T12:54:10;102160.72;;;22.21;46.50
73748;BME280;62056;52.130;5.428;2022-08-01T12:56:37;102171.03;;;22.28;46.04
73748;BME280;62056;52.130;5.428;2022-08-01T12:59:24;102174.66;;;22.32;44.83
73748;BME280;62056;52.130;5.428;2022-08-01T13:01:54;102170.41;;;22.31;44.88
73748;BME280;62056;52.130;5.428;2022-08-01T13:04:25;102171.72;;;22.25;45.11
73748;BME280;62056;52.130;5.428;2022-08-01T13:06:54;102165.41;;;22.33;45.87
73748;BME280;62056;52.130;5.428;2022-08-01T13:09:21;102170.16;;;22.36;46.65
73748;BME280;62056;52.130;5.428;2022-08-01T13:11:48;102169.28;;;22.45;47.14
73748;BME280;62056;52.130;5.428;2022-08-01T13:14:29;102165.91;;;22.48;47.27
73748;BME280;62056;52.130;5.428;2022-08-01T13:16:56;102162.66;;;22.54;47.91
73748;BME280;62056;52.130;5.428;2022-08-01T13:19:41;102170.13;;;22.70;47.37
73748;BME280;62056;52.130;5.428;2022-08-01T13:22:08;102165.84;;;22.81;44.48
73748;BME280;62056;52.130;5.428;2022-08-01T13:24:36;102162.22;;;22.89;42.98
73748;BME280;62056;52.130;5.428;2022-08-01T13:27:03;102161.56;;;22.92;41.94
73748;BME280;62056;52.130;5.428;2022-08-01T13:32:00;102152.28;;;22.93;42.12
73748;BME280;62056;52.130;5.428;2022-08-01T13:34:34;102158.75;;;23.01;42.51
73748;BME280;62056;52.130;5.428;2022-08-01T13:37:01;102158.28;;;22.99;42.38
73748;BME280;62056;52.130;5.428;2022-08-01T13:39:29;102155.25;;;23.00;42.86
73748;BME280;62056;52.130;5.428;2022-08-01T13:42:12;102156.06;;;23.01;42.46
73748;BME280;62056;52.130;5.428;2022-08-01T13:44:44;102148.22;;;22.99;43.92
73748;BME280;62056;52.130;5.428;2022-08-01T13:47:11;102154.13;;;23.14;43.74
73748;BME280;62056;52.130;5.428;2022-08-01T13:49:43;102151.41;;;23.14;43.31
73748;BME280;62056;52.130;5.428;2022-08-01T13:52:10;102153.47;;;23.17;43.69
73748;BME280;62056;52.130;5.428;2022-08-01T13:54:37;102155.94;;;23.22;42.10
73748;BME280;62056;52.130;5.428;2022-08-01T13:57:04;102148.81;;;23.17;39.58
73748;BME280;62056;52.130;5.428;2022-08-01T13:59:30;102149.94;;;23.16;37.84
73748;BME280;62056;52.130;5.428;2022-08-01T14:01:57;102144.06;;;23.14;40.05
73748;BME280;62056;52.130;5.428;2022-08-01T14:04:24;102139.44;;;23.15;40.48
73748;BME280;62056;52.130;5.428;2022-08-01T14:06:51;102143.84;;;23.19;39.35
73748;BME280;62056;52.130;5.428;2022-08-01T14:09:18;102150.16;;;23.23;38.80
73748;BME280;62056;52.130;5.428;2022-08-01T14:11:50;102141.91;;;23.20;38.97
73748;BME280;62056;52.130;5.428;2022-08-01T14:14:16;102134.00;;;23.27;38.88
73748;BME280;62056;52.130;5.428;2022-08-01T14:16:43;102138.53;;;23.23;38.89
73748;BME280;62056;52.130;5.428;2022-08-01T14:19:11;102135.81;;;23.23;39.08
73748;BME280;62056;52.130;5.428;2022-08-01T14:21:38;102138.28;;;23.28;39.61
73748;BME280;62056;52.130;5.428;2022-08-01T14:24:05;102137.84;;;23.26;39.35
73748;BME280;62056;52.130;5.428;2022-08-01T14:26:33;102137.84;;;23.26;40.36
73748;BME280;62056;52.130;5.428;2022-08-01T14:29:01;102142.16;;;23.27;39.61
73748;BME280;62056;52.130;5.428;2022-08-01T14:31:28;102140.44;;;23.22;39.98
73748;BME280;62056;52.130;5.428;2022-08-01T14:33:59;102129.69;;;23.26;39.13
73748;BME280;62056;52.130;5.428;2022-08-01T14:36:26;102132.09;;;23.15;37.24
73748;BME280;62056;52.130;5.428;2022-08-01T14:38:57;102137.28;;;23.08;37.23
73748;BME280;62056;52.130;5.428;2022-08-01T14:41:26;102131.75;;;23.05;37.98
73748;BME280;62056;52.130;5.428;2022-08-01T14:43:53;102131.06;;;23.08;38.95
73748;BME280;62056;52.130;5.428;2022-08-01T14:46:19;102133.31;;;23.18;38.98
73748;BME280;62056;52.130;5.428;2022-08-01T14:48:46;102139.97;;;23.20;38.64
73748;BME280;62056;52.130;5.428;2022-08-01T14:51:13;102137.41;;;23.12;38.17
73748;BME280;62056;52.130;5.428;2022-08-01T14:53:40;102136.03;;;23.06;37.37
73748;BME280;62056;52.130;5.428;2022-08-01T14:56:16;102133.31;;;23.06;37.33
73748;BME280;62056;52.130;5.428;2022-08-01T14:58:43;102133.78;;;23.08;36.94
73748;BME280;62056;52.130;5.428;2022-08-01T15:01:10;102141.69;;;23.00;37.52
73748;BME280;62056;52.130;5.428;2022-08-01T15:03:37;102131.94;;;22.99;38.45
73748;BME280;62056;52.130;5.428;2022-08-01T15:06:04;102130.94;;;23.04;37.94
73748;BME280;62056;52.130;5.428;2022-08-01T15:08:32;102138.41;;;23.07;36.17
73748;BME280;62056;52.130;5.428;2022-08-01T15:10:59;102134.56;;;23.08;36.96
73748;BME280;62056;52.130;5.428;2022-08-01T15:13:27;102130.41;;;23.11;37.65
73748;BME280;62056;52.130;5.428;2022-08-01T15:15:54;102132.88;;;23.03;35.67
73748;BME280;62056;52.130;5.428;2022-08-01T15:18:26;102126.66;;;23.03;36.60
73748;BME280;62056;52.130;5.428;2022-08-01T15:20:53;102130.94;;;23.04;36.83
73748;BME280;62056;52.130;5.428;2022-08-01T15:23:20;102141.09;;;22.95;36.00
73748;BME280;62056;52.130;5.428;2022-08-01T15:25:47;102139.75;;;22.89;36.52
73748;BME280;62056;52.130;5.428;2022-08-01T15:28:14;102143.94;;;22.86;37.03
73748;BME280;62056;52.130;5.428;2022-08-01T15:30:41;102146.78;;;22.90;37.56
73748;BME280;62056;52.130;5.428;2022-08-01T15:33:10;102154.09;;;22.89;36.13
73748;BME280;62056;52.130;5.428;2022-08-01T15:35:37;102153.63;;;22.87;35.93
73748;BME280;62056;52.130;5.428;2022-08-01T15:38:03;102158.41;;;22.90;35.47
73748;BME280;62056;52.130;5.428;2022-08-01T15:40:30;102161.00;;;22.87;35.28
73748;BME280;62056;52.130;5.428;2022-08-01T15:43:01;102156.59;;;22.94;35.27
73748;BME280;62056;52.130;5.428;2022-08-01T15:45:27;102150.72;;;22.92;34.97
73748;BME280;62056;52.130;5.428;2022-08-01T15:48:16;102154.44;;;22.88;35.20
73748;BME280;62056;52.130;5.428;2022-08-01T15:50:43;102152.19;;;22.90;35.94
73748;BME280;62056;52.130;5.428;2022-08-01T15:53:09;102145.63;;;22.91;35.29
73748;BME280;62056;52.130;5.428;2022-08-01T15:55:37;102148.34;;;22.91;34.91
73748;BME280;62056;52.130;5.428;2022-08-01T15:58:05;102152.53;;;22.88;35.14
73748;BME280;62056;52.130;5.428;2022-08-01T16:00:32;102150.03;;;22.83;35.82
73748;BME280;62056;52.130;5.428;2022-08-01T16:03:04;102153.19;;;22.85;36.33
73748;BME280;62056;52.130;5.428;2022-08-01T16:05:31;102155.00;;;22.81;36.91
73748;BME280;62056;52.130;5.428;2022-08-01T16:07:57;102151.50;;;22.80;37.01
73748;BME280;62056;52.130;5.428;2022-08-01T16:10:28;102155.22;;;22.76;36.85
73748;BME280;62056;52.130;5.428;2022-08-01T16:12:55;102159.06;;;22.75;36.60
73748;BME280;62056;52.130;5.428;2022-08-01T16:15:22;102149.69;;;22.72;36.62
73748;BME280;62056;52.130;5.428;2022-08-01T16:18:03;102149.69;;;22.72;37.20
73748;BME280;62056;52.130;5.428;2022-08-01T16:20:29;102154.09;;;22.77;36.57
73748;BME280;62056;52.130;5.428;2022-08-01T16:22:56;102148.75;;;22.68;36.82
73748;BME280;62056;52.130;5.428;2022-08-01T16:25:22;102149.91;;;22.67;36.74
73748;BME280;62056;52.130;5.428;2022-08-01T16:27:49;102141.09;;;22.70;37.42
73748;BME280;62056;52.130;5.428;2022-08-01T16:30:15;102150.91;;;22.75;37.34
73748;BME280;62056;52.130;5.428;2022-08-01T16:32:42;102152.84;;;22.74;38.16
73748;BME280;62056;52.130;5.428;2022-08-01T16:35:19;102147.97;;;22.68;38.66
73748;BME280;62056;52.130;5.428;2022-08-01T16:37:45;102151.16;;;22.70;39.22
73748;BME280;62056;52.130;5.428;2022-08-01T16:40:12;102146.06;;;22.68;39.73
73748;BME280;62056;52.130;5.428;2022-08-01T16:42:39;102143.34;;;22.68;39.58
73748;BME280;62056;52.130;5.428;2022-08-01T16:45:07;102132.16;;;22.70;39.13
73748;BME280;62056;52.130;5.428;2022-08-01T16:47:40;102135.53;;;22.67;38.95
73748;BME280;62056;52.130;5.428;2022-08-01T16:50:07;102135.66;;;22.70;39.38
73748;BME280;62056;52.130;5.428;2022-08-01T16:52:35;102136.69;;;22.66;39.17
73748;BME280;62056;52.130;5.428;2022-08-01T16:55:10;102132.16;;;22.57;39.01
73748;BME280;62056;52.130;5.428;2022-08-01T16:57:38;102133.97;;;22.53;39.24
73748;BME280;62056;52.130;5.428;2022-08-01T17:00:08;102134.84;;;22.45;38.94
73748;BME280;62056;52.130;5.428;2022-08-01T17:02:46;102132.13;;;22.45;39.47
73748;BME280;62056;52.130;5.428;2022-08-01T17:05:13;102135.75;;;22.49;39.49
73748;BME280;62056;52.130;5.428;2022-08-01T17:07:40;102134.38;;;22.43;40.03
73748;BME280;62056;52.130;5.428;2022-08-01T17:10:07;102144.13;;;22.44;40.11
73748;BME280;62056;52.130;5.428;2022-08-01T17:12:34;102148.84;;;22.47;40.24
73748;BME280;62056;52.130;5.428;2022-08-01T17:15:06;102143.75;;;22.46;40.36
73748;BME280;62056;52.130;5.428;2022-08-01T17:17:33;102140.72;;;22.47;40.37
73748;BME280;62056;52.130;5.428;2022-08-01T17:20:02;102141.19;;;22.49;40.42
73748;BME280;62056;52.130;5.428;2022-08-01T17:22:29;102127.28;;;22.51;40.41
73748;BME280;62056;52.130;5.428;2022-08-01T17:24:55;102130.00;;;22.51;40.44
73748;BME280;62056;52.130;5.428;2022-08-01T17:27:22;102133.50;;;22.51;40.54
73748;BME280;62056;52.130;5.428;2022-08-01T17:29:49;102143.88;;;22.49;40.33
73748;BME280;62056;52.130;5.428;2022-08-01T17:32:15;102144.78;;;22.41;40.17
73748;BME280;62056;52.130;5.428;2022-08-01T17:34:42;102154.69;;;22.37;40.41
73748;BME280;62056;52.130;5.428;2022-08-01T17:37:09;102150.75;;;22.34;40.38
73748;BME280;62056;52.130;5.428;2022-08-01T17:39:36;102151.84;;;22.33;40.28
73748;BME280;62056;52.130;5.428;2022-08-01T17:42:06;102150.97;;;22.29;40.01
73748;BME280;62056;52.130;5.428;2022-08-01T17:44:33;102139.69;;;22.27;40.13
73748;BME280;62056;52.130;5.428;2022-08-01T17:47:00;102138.06;;;22.26;40.10
73748;BME280;62056;52.130;5.428;2022-08-01T17:49:26;102143.81;;;22.25;40.26
73748;BME280;62056;52.130;5.428;2022-08-01T17:52:13;102139.06;;;22.21;39.90
73748;BME280;62056;52.130;5.428;2022-08-01T17:54:40;102144.34;;;22.18;40.09
73748;BME280;62056;52.130;5.428;2022-08-01T17:57:07;102143.28;;;22.10;39.95
73748;BME280;62056;52.130;5.428;2022-08-01T17:59:34;102142.59;;;22.01;39.87
73748;BME280;62056;52.130;5.428;2022-08-01T18:02:01;102143.00;;;21.91;40.53
73748;BME280;62056;52.130;5.428;2022-08-01T18:04:29;102137.44;;;21.87;40.26
73748;BME280;62056;52.130;5.428;2022-08-01T18:06:59;102135.75;;;21.82;40.70
73748;BME280;62056;52.130;5.428;2022-08-01T18:09:26;102147.75;;;21.73;41.78
73748;BME280;62056;52.130;5.428;2022-08-01T18:11:58;102145.94;;;21.65;42.07
73748;BME280;62056;52.130;5.428;2022-08-01T18:14:30;102149.97;;;21.58;42.44
73748;BME280;62056;52.130;5.428;2022-08-01T18:17:06;102154.44;;;21.54;42.79
73748;BME280;62056;52.130;5.428;2022-08-01T18:19:36;102147.56;;;21.57;42.77
73748;BME280;62056;52.130;5.428;2022-08-01T18:22:04;102153.00;;;21.57;42.75
73748;BME280;62056;52.130;5.428;2022-08-01T18:24:30;102153.50;;;21.50;42.77
73748;BME280;62056;52.130;5.428;2022-08-01T18:26:58;102149.75;;;21.42;43.10
73748;BME280;62056;52.130;5.428;2022-08-01T18:29:24;102146.06;;;21.38;43.28
73748;BME280;62056;52.130;5.428;2022-08-01T18:32:11;102158.94;;;21.41;43.19
73748;BME280;62056;52.130;5.428;2022-08-01T18:34:38;102156.56;;;21.40;43.23
73748;BME280;62056;52.130;5.428;2022-08-01T18:37:06;102159.00;;;21.33;43.92
73748;BME280;62056;52.130;5.428;2022-08-01T18:39:37;102157.94;;;21.25;44.03
73748;BME280;62056;52.130;5.428;2022-08-01T18:42:04;102159.25;;;21.19;43.87
73748;BME280;62056;52.130;5.428;2022-08-01T18:44:31;102157.66;;;21.18;43.89
73748;BME280;62056;52.130;5.428;2022-08-01T18:46:58;102148.91;;;21.12;44.08
73748;BME280;62056;52.130;5.428;2022-08-01T18:49:24;102152.59;;;21.08;44.26
73748;BME280;62056;52.130;5.428;2022-08-01T18:51:54;102141.97;;;21.02;44.26
73748;BME280;62056;52.130;5.428;2022-08-01T18:54:23;102150.09;;;21.02;44.58
73748;BME280;62056;52.130;5.428;2022-08-01T18:56:52;102148.97;;;21.03;44.42
73748;BME280;62056;52.130;5.428;2022-08-01T18:59:20;102149.44;;;21.06;44.33
73748;BME280;62056;52.130;5.428;2022-08-01T19:01:46;102150.22;;;21.06;44.33
73748;BME280;62056;52.130;5.428;2022-08-01T19:04:13;102152.91;;;21.06;44.21
73748;BME280;62056;52.130;5.428;2022-08-01T19:06:40;102150.56;;;21.05;44.36
73748;BME280;62056;52.130;5.428;2022-08-01T19:09:07;102158.22;;;21.02;44.22
73748;BME280;62056;52.130;5.428;2022-08-01T19:11:37;102155.34;;;20.99;44.38
73748;BME280;62056;52.130;5.428;2022-08-01T19:14:07;102160.28;;;20.97;44.34
73748;BME280;62056;52.130;5.428;2022-08-01T19:16:33;102164.75;;;20.93;44.48
73748;BME280;62056;52.130;5.428;2022-08-01T19:19:08;102163.03;;;20.88;45.43
73748;BME280;62056;52.130;5.428;2022-08-01T19:21:35;102166.84;;;20.87;45.07
73748;BME280;62056;52.130;5.428;2022-08-01T19:24:09;102165.91;;;20.83;45.25
73748;BME280;62056;52.130;5.428;2022-08-01T19:26:58;102164.50;;;20.77;45.11
73748;BME280;62056;52.130;5.428;2022-08-01T19:29:37;102176.59;;;20.71;45.93
73748;BME280;62056;52.130;5.428;2022-08-01T19:32:06;102176.97;;;20.60;45.81
73748;BME280;62056;52.130;5.428;2022-08-01T19:37:24;102181.41;;;20.56;45.77
73748;BME280;62056;52.130;5.428;2022-08-01T19:39:53;102181.72;;;20.55;45.87
73748;BME280;62056;52.130;5.428;2022-08-01T19:42:23;102196.19;;;20.50;46.03
73748;BME280;62056;52.130;5.428;2022-08-01T19:44:53;102200.50;;;20.42;46.61
73748;BME280;62056;52.130;5.428;2022-08-01T19:47:20;102200.97;;;20.36;46.73
73748;BME280;62056;52.130;5.428;2022-08-01T19:49:47;102200.19;;;20.27;47.01
73748;BME280;62056;52.130;5.428;2022-08-01T19:52:16;102201.44;;;20.20;47.52
73748;BME280;62056;52.130;5.428;2022-08-01T19:54:46;102202.25;;;20.12;47.87
73748;BME280;62056;52.130;5.428;2022-08-01T19:57:14;102203.53;;;20.06;48.11
73748;BME280;62056;52.130;5.428;2022-08-01T19:59:44;102198.13;;;19.97;48.49
73748;BME280;62056;52.130;5.428;2022-08-01T20:02:17;102199.72;;;19.90;49.04
73748;BME280;62056;52.130;5.428;2022-08-01T20:04:49;102199.38;;;19.83;48.95
73748;BME280;62056;52.130;5.428;2022-08-01T20:07:16;102200.34;;;19.78;49.15
73748;BME280;62056;52.130;5.428;2022-08-01T20:09:45;102193.19;;;19.73;49.76
73748;BME280;62056;52.130;5.428;2022-08-01T20:12:13;102199.38;;;19.74;49.41
73748;BME280;62056;52.130;5.428;2022-08-01T20:14:41;102188.88;;;19.72;49.32
73748;BME280;62056;52.130;5.428;2022-08-01T20:17:08;102191.41;;;19.69;49.46
73748;BME280;62056;52.130;5.428;2022-08-01T20:19:35;102188.38;;;19.61;49.61
73748;BME280;62056;52.130;5.428;2022-08-01T20:22:04;102188.97;;;19.50;50.13
73748;BME280;62056;52.130;5.428;2022-08-01T20:24:38;102203.09;;;19.38;51.81
73748;BME280;62056;52.130;5.428;2022-08-01T20:27:08;102198.31;;;19.35;51.13
73748;BME280;62056;52.130;5.428;2022-08-01T20:29:37;102194.63;;;19.31;51.15
73748;BME280;62056;52.130;5.428;2022-08-01T20:32:04;102192.59;;;19.28;51.32
73748;BME280;62056;52.130;5.428;2022-08-01T20:34:34;102194.00;;;19.25;51.75
73748;BME280;62056;52.130;5.428;2022-08-01T20:37:04;102199.34;;;19.16;51.98
73748;BME280;62056;52.130;5.428;2022-08-01T20:39:33;102195.19;;;19.10;51.88
73748;BME280;62056;52.130;5.428;2022-08-01T20:42:02;102204.22;;;19.06;52.30
73748;BME280;62056;52.130;5.428;2022-08-01T20:44:32;102202.16;;;19.03;53.00
73748;BME280;62056;52.130;5.428;2022-08-01T20:47:01;102192.31;;;18.98;52.40
73748;BME280;62056;52.130;5.428;2022-08-01T20:49:28;102189.13;;;18.96;52.63
73748;BME280;62056;52.130;5.428;2022-08-01T20:51:56;102193.06;;;18.90;53.20
73748;BME280;62056;52.130;5.428;2022-08-01T20:54:23;102189.53;;;18.80;53.75
73748;BME280;62056;52.130;5.428;2022-08-01T20:56:58;102197.22;;;18.73;54.32
73748;BME280;62056;52.130;5.428;2022-08-01T20:59:36;102190.38;;;18.67;56.35
73748;BME280;62056;52.130;5.428;2022-08-01T21:05:25;102201.47;;;18.66;56.19
73748;BME280;62056;52.130;5.428;2022-08-01T21:07:59;102197.19;;;18.65;54.78
73748;BME280;62056;52.130;5.428;2022-08-01T21:10:28;102198.09;;;18.60;54.61
73748;BME280;62056;52.130;5.428;2022-08-01T21:13:03;102193.81;;;18.59;55.71
73748;BME280;62056;52.130;5.428;2022-08-01T21:18:06;102193.31;;;18.57;56.16
73748;BME280;62056;52.130;5.428;2022-08-01T21:20:38;102197.06;;;18.47;55.93
73748;BME280;62056;52.130;5.428;2022-08-01T21:25:59;102196.22;;;18.38;55.75
73748;BME280;62056;52.130;5.428;2022-08-01T21:28:33;102192.06;;;18.32;56.46
73748;BME280;62056;52.130;5.428;2022-08-01T21:31:02;102192.47;;;18.25;56.47
73748;BME280;62056;52.130;5.428;2022-08-01T21:33:34;102197.00;;;18.16;56.61
73748;BME280;62056;52.130;5.428;2022-08-01T21:36:22;102201.19;;;18.08;56.87
73748;BME280;62056;52.130;5.428;2022-08-01T21:38:56;102202.53;;;17.97;58.04
73748;BME280;62056;52.130;5.428;2022-08-01T21:41:28;102196.28;;;17.88;58.65
73748;BME280;62056;52.130;5.428;2022-08-01T21:44:17;102196.09;;;17.84;58.75
73748;BME280;62056;52.130;5.428;2022-08-01T21:46:44;102187.22;;;17.84;58.21
73748;BME280;62056;52.130;5.428;2022-08-01T21:49:13;102177.81;;;17.81;58.12
73748;BME280;62056;52.130;5.428;2022-08-01T21:51:43;102175.75;;;17.78;58.55
73748;BME280;62056;52.130;5.428;2022-08-01T22:00:07;102191.81;;;17.69;58.45
73748;BME280;62056;52.130;5.428;2022-08-01T22:02:59;102174.06;;;17.68;58.39
73748;BME280;62056;52.130;5.428;2022-08-01T22:05:29;102181.03;;;17.69;57.76
73748;BME280;62056;52.130;5.428;2022-08-01T22:08:28;102177.06;;;17.67;58.14
73748;BME280;62056;52.130;5.428;2022-08-01T22:11:02;102181.75;;;17.61;57.18
73748;BME280;62056;52.130;5.428;2022-08-01T22:13:29;102182.34;;;17.58;57.55
73748;BME280;62056;52.130;5.428;2022-08-01T22:15:56;102183.16;;;17.58;57.38
73748;BME280;62056;52.130;5.428;2022-08-01T22:18:25;102177.88;;;17.53;57.99
73748;BME280;62056;52.130;5.428;2022-08-01T22:20:52;102180.84;;;17.52;58.22
73748;BME280;62056;52.130;5.428;2022-08-01T22:23:21;102179.06;;;17.47;57.72
73748;BME280;62056;52.130;5.428;2022-08-01T22:25:52;102172.41;;;17.45;59.00
73748;BME280;62056;52.130;5.428;2022-08-01T22:28:21;102178.88;;;17.44;57.97
73748;BME280;62056;52.130;5.428;2022-08-01T22:30:50;102171.41;;;17.40;57.73
73748;BME280;62056;52.130;5.428;2022-08-01T22:33:17;102171.22;;;17.37;57.96
73748;BME280;62056;52.130;5.428;2022-08-01T22:35:47;102165.84;;;17.37;57.81
73748;BME280;62056;52.130;5.428;2022-08-01T22:38:16;102170.41;;;17.36;57.65
73748;BME280;62056;52.130;5.428;2022-08-01T22:43:23;102173.59;;;17.25;59.81
73748;BME280;62056;52.130;5.428;2022-08-01T22:54:29;102167.25;;;17.07;59.53
73748;BME280;62056;52.130;5.428;2022-08-01T22:57:03;102169.22;;;17.01;59.78
73748;BME280;62056;52.130;5.428;2022-08-01T22:59:45;102156.69;;;16.96;61.00
73748;BME280;62056;52.130;5.428;2022-08-01T23:02:15;102158.06;;;16.94;59.91
73748;BME280;62056;52.130;5.428;2022-08-01T23:04:48;102160.56;;;16.90;59.34
73748;BME280;62056;52.130;5.428;2022-08-01T23:07:18;102154.97;;;16.87;59.30
73748;BME280;62056;52.130;5.428;2022-08-01T23:09:47;102160.34;;;16.87;59.25
73748;BME280;62056;52.130;5.428;2022-08-01T23:12:23;102153.06;;;16.87;59.50
73748;BME280;62056;52.130;5.428;2022-08-01T23:14:55;102145.84;;;16.88;59.19
73748;BME280;62056;52.130;5.428;2022-08-01T23:17:28;102143.72;;;16.85;59.30
73748;BME280;62056;52.130;5.428;2022-08-01T23:19:58;102147.50;;;16.84;59.10
73748;BME280;62056;52.130;5.428;2022-08-01T23:22:30;102146.19;;;16.81;58.97
73748;BME280;62056;52.130;5.428;2022-08-01T23:24:58;102148.34;;;16.79;58.96
73748;BME280;62056;52.130;5.428;2022-08-01T23:27:35;102141.69;;;16.76;58.61
73748;BME280;62056;52.130;5.428;2022-08-01T23:30:27;102145.28;;;16.72;59.04
73748;BME280;62056;52.130;5.428;2022-08-01T23:32:54;102144.28;;;16.68;58.99
73748;BME280;62056;52.130;5.428;2022-08-01T23:35:21;102145.66;;;16.65;58.70
73748;BME280;62056;52.130;5.428;2022-08-01T23:37:50;102149.63;;;16.68;59.05
73748;BME280;62056;52.130;5.428;2022-08-01T23:40:18;102160.88;;;16.70;58.78
73748;BME280;62056;52.130;5.428;2022-08-01T23:42:44;102160.66;;;16.66;58.54
73748;BME280;62056;52.130;5.428;2022-08-01T23:45:11;102154.00;;;16.64;58.90
73748;BME280;62056;52.130;5.428;2022-08-01T23:47:38;102156.41;;;16.65;58.57
73748;BME280;62056;52.130;5.428;2022-08-01T23:50:05;102156.91;;;16.67;58.65
73748;BME280;62056;52.130;5.428;2022-08-01T23:52:33;102155.28;;;16.66;58.62
73748;BME280;62056;52.130;5.428;2022-08-01T23:55:13;102149.13;;;16.66;58.44
73748;BME280;62056;52.130;5.428;2022-08-01T23:57:41;102149.13;;;16.66;58.17
